sensor_id;sensor_type;location;lat;lon;timestamp;P1;durP1;ratioP1;P2;durP2;ratioP2
37323;SDS011;23205;49.986;18.950;2022-07-29T00:04:22;15.25;;;7.32;;
37323;SDS011;23205;49.986;18.950;2022-07-29T00:09:23;13.93;;;7.28;;
37323;SDS011;23205;49.986;18.950;2022-07-29T00:14:24;15.02;;;7.25;;
37323;SDS011;23205;49.986;18.950;2022-07-29T00:19:25;14.98;;;7.25;;
37323;SDS011;23205;49.986;18.950;2022-07-29T00:24:26;12.10;;;7.20;;
37323;SDS011;23205;49.986;18.950;2022-07-29T00:29:26;13.45;;;7.10;;
37323;SDS011;23205;49.986;18.950;2022-07-29T00:34:27;11.32;;;5.68;;
37323;SDS011;23205;49.986;18.950;2022-07-29T00:39:46;14.90;;;6.47;;
37323;SDS011;23205;49.986;18.950;2022-07-29T00:44:47;17.80;;;6.85;;
37323;SDS011;23205;49.986;18.950;2022-07-29T00:49:48;15.60;;;7.13;;
37323;SDS011;23205;49.986;18.950;2022-07-29T00:54:49;15.60;;;6.80;;
37323;SDS011;23205;49.986;18.950;2022-07-29T00:59:50;11.80;;;6.97;;
37323;SDS011;23205;49.986;18.950;2022-07-29T01:04:50;11.95;;;6.80;;
37323;SDS011;23205;49.986;18.950;2022-07-29T01:09:51;13.07;;;6.47;;
37323;SDS011;23205;49.986;18.950;2022-07-29T01:14:54;14.98;;;7.05;;
37323;SDS011;23205;49.986;18.950;2022-07-29T01:30:17;15.77;;;6.28;;
37323;SDS011;23205;49.986;18.950;2022-07-29T01:40:43;11.93;;;5.90;;
37323;SDS011;23205;49.986;18.950;2022-07-29T01:46:02;11.15;;;5.47;;
37323;SDS011;23205;49.986;18.950;2022-07-29T01:56:16;15.30;;;5.35;;
37323;SDS011;23205;49.986;18.950;2022-07-29T02:01:19;13.35;;;5.68;;
37323;SDS011;23205;49.986;18.950;2022-07-29T02:06:23;13.30;;;5.45;;
37323;SDS011;23205;49.986;18.950;2022-07-29T02:11:26;13.68;;;5.00;;
37323;SDS011;23205;49.986;18.950;2022-07-29T02:16:28;12.80;;;4.95;;
37323;SDS011;23205;49.986;18.950;2022-07-29T02:21:31;13.20;;;5.40;;
37323;SDS011;23205;49.986;18.950;2022-07-29T02:26:33;14.68;;;4.90;;
37323;SDS011;23205;49.986;18.950;2022-07-29T02:31:35;17.58;;;5.25;;
37323;SDS011;23205;49.986;18.950;2022-07-29T02:36:38;9.60;;;4.65;;
37323;SDS011;23205;49.986;18.950;2022-07-29T02:46:50;12.25;;;5.13;;
37323;SDS011;23205;49.986;18.950;2022-07-29T02:52:03;7.30;;;4.30;;
37323;SDS011;23205;49.986;18.950;2022-07-29T02:57:38;10.55;;;4.47;;
37323;SDS011;23205;49.986;18.950;2022-07-29T03:02:44;11.90;;;5.13;;
37323;SDS011;23205;49.986;18.950;2022-07-29T03:08:03;10.60;;;4.78;;
37323;SDS011;23205;49.986;18.950;2022-07-29T03:13:05;13.55;;;4.05;;
37323;SDS011;23205;49.986;18.950;2022-07-29T03:18:08;8.10;;;3.42;;
37323;SDS011;23205;49.986;18.950;2022-07-29T03:23:09;13.30;;;4.80;;
37323;SDS011;23205;49.986;18.950;2022-07-29T03:28:10;13.73;;;4.25;;
37323;SDS011;23205;49.986;18.950;2022-07-29T03:33:11;12.40;;;4.03;;
37323;SDS011;23205;49.986;18.950;2022-07-29T03:38:12;8.35;;;4.10;;
37323;SDS011;23205;49.986;18.950;2022-07-29T03:43:13;13.02;;;4.82;;
37323;SDS011;23205;49.986;18.950;2022-07-29T03:48:17;11.35;;;4.35;;
37323;SDS011;23205;49.986;18.950;2022-07-29T03:53:22;13.20;;;4.20;;
37323;SDS011;23205;49.986;18.950;2022-07-29T03:58:23;9.45;;;3.50;;
37323;SDS011;23205;49.986;18.950;2022-07-29T04:03:26;9.82;;;3.85;;
37323;SDS011;23205;49.986;18.950;2022-07-29T04:08:28;11.00;;;3.40;;
37323;SDS011;23205;49.986;18.950;2022-07-29T04:13:29;9.55;;;3.50;;
37323;SDS011;23205;49.986;18.950;2022-07-29T04:18:30;12.95;;;3.05;;
37323;SDS011;23205;49.986;18.950;2022-07-29T04:23:31;9.48;;;3.47;;
37323;SDS011;23205;49.986;18.950;2022-07-29T04:28:35;9.32;;;3.50;;
37323;SDS011;23205;49.986;18.950;2022-07-29T04:33:35;8.95;;;3.65;;
37323;SDS011;23205;49.986;18.950;2022-07-29T04:38:37;7.32;;;3.72;;
37323;SDS011;23205;49.986;18.950;2022-07-29T04:43:38;9.30;;;3.47;;
37323;SDS011;23205;49.986;18.950;2022-07-29T04:48:39;8.73;;;3.17;;
37323;SDS011;23205;49.986;18.950;2022-07-29T04:53:39;8.70;;;3.38;;
37323;SDS011;23205;49.986;18.950;2022-07-29T04:58:40;6.22;;;3.00;;
37323;SDS011;23205;49.986;18.950;2022-07-29T05:03:41;8.10;;;3.17;;
37323;SDS011;23205;49.986;18.950;2022-07-29T05:08:42;12.93;;;3.55;;
37323;SDS011;23205;49.986;18.950;2022-07-29T05:13:43;8.85;;;2.80;;
37323;SDS011;23205;49.986;18.950;2022-07-29T05:18:43;8.52;;;3.20;;
37323;SDS011;23205;49.986;18.950;2022-07-29T05:23:44;8.40;;;2.97;;
37323;SDS011;23205;49.986;18.950;2022-07-29T05:28:45;7.75;;;2.88;;
37323;SDS011;23205;49.986;18.950;2022-07-29T05:33:46;7.30;;;2.63;;
37323;SDS011;23205;49.986;18.950;2022-07-29T05:38:47;10.30;;;2.72;;
37323;SDS011;23205;49.986;18.950;2022-07-29T05:43:47;10.18;;;3.30;;
37323;SDS011;23205;49.986;18.950;2022-07-29T05:48:48;9.65;;;3.15;;
37323;SDS011;23205;49.986;18.950;2022-07-29T05:53:49;8.38;;;2.88;;
37323;SDS011;23205;49.986;18.950;2022-07-29T05:58:50;9.63;;;3.15;;
37323;SDS011;23205;49.986;18.950;2022-07-29T06:03:51;8.50;;;2.88;;
37323;SDS011;23205;49.986;18.950;2022-07-29T06:08:52;10.68;;;3.38;;
37323;SDS011;23205;49.986;18.950;2022-07-29T06:13:53;7.97;;;2.58;;
37323;SDS011;23205;49.986;18.950;2022-07-29T06:18:54;7.75;;;2.80;;
37323;SDS011;23205;49.986;18.950;2022-07-29T06:23:55;5.63;;;2.88;;
37323;SDS011;23205;49.986;18.950;2022-07-29T06:28:56;6.05;;;2.85;;
37323;SDS011;23205;49.986;18.950;2022-07-29T06:33:57;10.82;;;3.22;;
37323;SDS011;23205;49.986;18.950;2022-07-29T06:38:58;7.47;;;2.72;;
37323;SDS011;23205;49.986;18.950;2022-07-29T06:43:59;7.40;;;3.45;;
37323;SDS011;23205;49.986;18.950;2022-07-29T06:49:00;6.82;;;2.63;;
37323;SDS011;23205;49.986;18.950;2022-07-29T06:54:02;7.15;;;2.80;;
37323;SDS011;23205;49.986;18.950;2022-07-29T06:59:05;7.70;;;2.78;;
37323;SDS011;23205;49.986;18.950;2022-07-29T07:04:08;8.73;;;3.03;;
37323;SDS011;23205;49.986;18.950;2022-07-29T07:09:09;6.70;;;2.35;;
37323;SDS011;23205;49.986;18.950;2022-07-29T07:14:10;8.70;;;3.05;;
37323;SDS011;23205;49.986;18.950;2022-07-29T07:19:11;7.18;;;3.05;;
37323;SDS011;23205;49.986;18.950;2022-07-29T07:24:12;8.30;;;2.85;;
37323;SDS011;23205;49.986;18.950;2022-07-29T07:29:12;6.63;;;3.00;;
37323;SDS011;23205;49.986;18.950;2022-07-29T07:34:13;9.07;;;3.30;;
37323;SDS011;23205;49.986;18.950;2022-07-29T07:39:14;9.07;;;2.67;;
37323;SDS011;23205;49.986;18.950;2022-07-29T07:44:15;7.97;;;3.20;;
37323;SDS011;23205;49.986;18.950;2022-07-29T07:49:16;8.50;;;2.92;;
37323;SDS011;23205;49.986;18.950;2022-07-29T07:54:17;7.50;;;3.13;;
37323;SDS011;23205;49.986;18.950;2022-07-29T07:59:18;7.70;;;2.53;;
37323;SDS011;23205;49.986;18.950;2022-07-29T08:04:18;8.20;;;2.78;;
37323;SDS011;23205;49.986;18.950;2022-07-29T08:09:20;7.32;;;2.90;;
37323;SDS011;23205;49.986;18.950;2022-07-29T08:14:21;5.53;;;2.72;;
37323;SDS011;23205;49.986;18.950;2022-07-29T08:19:22;9.85;;;3.00;;
37323;SDS011;23205;49.986;18.950;2022-07-29T08:24:23;8.85;;;2.95;;
37323;SDS011;23205;49.986;18.950;2022-07-29T08:29:42;10.33;;;2.60;;
37323;SDS011;23205;49.986;18.950;2022-07-29T08:34:43;6.78;;;3.13;;
37323;SDS011;23205;49.986;18.950;2022-07-29T08:39:46;16.88;;;3.30;;
37323;SDS011;23205;49.986;18.950;2022-07-29T08:44:47;11.68;;;3.00;;
37323;SDS011;23205;49.986;18.950;2022-07-29T08:49:48;13.38;;;3.72;;
37323;SDS011;23205;49.986;18.950;2022-07-29T08:54:50;10.02;;;3.35;;
37323;SDS011;23205;49.986;18.950;2022-07-29T08:59:53;7.47;;;2.95;;
37323;SDS011;23205;49.986;18.950;2022-07-29T09:04:55;11.25;;;3.17;;
37323;SDS011;23205;49.986;18.950;2022-07-29T09:10:01;6.45;;;2.88;;
37323;SDS011;23205;49.986;18.950;2022-07-29T09:15:04;10.52;;;3.40;;
37323;SDS011;23205;49.986;18.950;2022-07-29T09:20:09;6.93;;;2.88;;
37323;SDS011;23205;49.986;18.950;2022-07-29T09:25:33;9.30;;;3.95;;
37323;SDS011;23205;49.986;18.950;2022-07-29T09:30:35;6.95;;;3.15;;
37323;SDS011;23205;49.986;18.950;2022-07-29T09:41:20;14.10;;;4.35;;
37323;SDS011;23205;49.986;18.950;2022-07-29T09:46:21;9.63;;;3.47;;
37323;SDS011;23205;49.986;18.950;2022-07-29T09:51:21;8.15;;;3.25;;
37323;SDS011;23205;49.986;18.950;2022-07-29T09:56:39;6.78;;;3.15;;
37323;SDS011;23205;49.986;18.950;2022-07-29T10:01:40;9.98;;;3.05;;
37323;SDS011;23205;49.986;18.950;2022-07-29T10:06:58;7.60;;;3.45;;
37323;SDS011;23205;49.986;18.950;2022-07-29T10:12:10;7.05;;;2.95;;
37323;SDS011;23205;49.986;18.950;2022-07-29T10:17:15;7.40;;;3.33;;
37323;SDS011;23205;49.986;18.950;2022-07-29T10:22:16;14.90;;;4.00;;
37323;SDS011;23205;49.986;18.950;2022-07-29T10:27:17;6.88;;;3.55;;
37323;SDS011;23205;49.986;18.950;2022-07-29T10:37:37;14.73;;;3.90;;
37323;SDS011;23205;49.986;18.950;2022-07-29T10:42:44;7.03;;;3.25;;
37323;SDS011;23205;49.986;18.950;2022-07-29T10:47:45;7.47;;;3.20;;
37323;SDS011;23205;49.986;18.950;2022-07-29T11:15:03;9.52;;;3.33;;
37323;SDS011;23205;49.986;18.950;2022-07-29T11:20:46;8.57;;;3.25;;
37323;SDS011;23205;49.986;18.950;2022-07-29T11:25:45;6.72;;;2.95;;
37323;SDS011;23205;49.986;18.950;2022-07-29T11:31:06;6.07;;;3.17;;
37323;SDS011;23205;49.986;18.950;2022-07-29T11:36:11;5.53;;;2.70;;
37323;SDS011;23205;49.986;18.950;2022-07-29T11:41:23;6.80;;;3.33;;
37323;SDS011;23205;49.986;18.950;2022-07-29T11:51:52;8.15;;;2.90;;
37323;SDS011;23205;49.986;18.950;2022-07-29T11:56:53;5.18;;;2.88;;
37323;SDS011;23205;49.986;18.950;2022-07-29T12:01:55;6.43;;;3.00;;
37323;SDS011;23205;49.986;18.950;2022-07-29T12:06:56;7.07;;;2.80;;
37323;SDS011;23205;49.986;18.950;2022-07-29T12:11:57;5.95;;;3.15;;
37323;SDS011;23205;49.986;18.950;2022-07-29T12:16:59;5.25;;;2.63;;
37323;SDS011;23205;49.986;18.950;2022-07-29T12:22:00;5.88;;;3.00;;
37323;SDS011;23205;49.986;18.950;2022-07-29T12:27:01;6.25;;;2.45;;
37323;SDS011;23205;49.986;18.950;2022-07-29T12:32:02;5.65;;;2.13;;
37323;SDS011;23205;49.986;18.950;2022-07-29T12:37:06;4.72;;;2.58;;
37323;SDS011;23205;49.986;18.950;2022-07-29T12:42:13;5.80;;;2.40;;
37323;SDS011;23205;49.986;18.950;2022-07-29T12:47:15;8.05;;;2.60;;
37323;SDS011;23205;49.986;18.950;2022-07-29T12:52:24;6.65;;;3.17;;
37323;SDS011;23205;49.986;18.950;2022-07-29T12:57:27;8.10;;;2.60;;
37323;SDS011;23205;49.986;18.950;2022-07-29T13:02:28;7.30;;;2.30;;
37323;SDS011;23205;49.986;18.950;2022-07-29T13:07:29;6.97;;;2.88;;
37323;SDS011;23205;49.986;18.950;2022-07-29T13:12:32;6.47;;;2.45;;
37323;SDS011;23205;49.986;18.950;2022-07-29T13:17:33;4.80;;;2.65;;
37323;SDS011;23205;49.986;18.950;2022-07-29T13:22:41;8.02;;;2.90;;
37323;SDS011;23205;49.986;18.950;2022-07-29T13:27:42;5.55;;;3.00;;
37323;SDS011;23205;49.986;18.950;2022-07-29T13:32:45;6.97;;;2.88;;
37323;SDS011;23205;49.986;18.950;2022-07-29T13:37:47;5.80;;;2.20;;
37323;SDS011;23205;49.986;18.950;2022-07-29T13:42:48;7.57;;;2.30;;
37323;SDS011;23205;49.986;18.950;2022-07-29T13:47:48;7.22;;;2.92;;
37323;SDS011;23205;49.986;18.950;2022-07-29T13:52:49;4.90;;;2.53;;
37323;SDS011;23205;49.986;18.950;2022-07-29T13:57:51;6.38;;;2.47;;
37323;SDS011;23205;49.986;18.950;2022-07-29T14:02:51;5.78;;;2.28;;
37323;SDS011;23205;49.986;18.950;2022-07-29T14:07:52;5.15;;;2.30;;
37323;SDS011;23205;49.986;18.950;2022-07-29T14:12:53;11.13;;;2.08;;
37323;SDS011;23205;49.986;18.950;2022-07-29T14:17:54;9.20;;;2.10;;
37323;SDS011;23205;49.986;18.950;2022-07-29T14:22:55;8.13;;;2.80;;
37323;SDS011;23205;49.986;18.950;2022-07-29T14:27:56;6.93;;;1.98;;
37323;SDS011;23205;49.986;18.950;2022-07-29T14:32:57;4.03;;;1.98;;
37323;SDS011;23205;49.986;18.950;2022-07-29T14:37:58;6.18;;;2.28;;
37323;SDS011;23205;49.986;18.950;2022-07-29T14:42:59;6.10;;;2.42;;
37323;SDS011;23205;49.986;18.950;2022-07-29T14:47:59;12.25;;;2.67;;
37323;SDS011;23205;49.986;18.950;2022-07-29T14:53:00;8.40;;;2.45;;
37323;SDS011;23205;49.986;18.950;2022-07-29T14:58:01;7.90;;;2.38;;
37323;SDS011;23205;49.986;18.950;2022-07-29T15:03:02;5.22;;;2.80;;
37323;SDS011;23205;49.986;18.950;2022-07-29T15:08:03;5.07;;;2.47;;
37323;SDS011;23205;49.986;18.950;2022-07-29T15:13:04;7.45;;;2.92;;
37323;SDS011;23205;49.986;18.950;2022-07-29T15:18:05;8.02;;;2.78;;
37323;SDS011;23205;49.986;18.950;2022-07-29T15:23:06;7.13;;;2.70;;
37323;SDS011;23205;49.986;18.950;2022-07-29T15:28:09;6.18;;;2.75;;
37323;SDS011;23205;49.986;18.950;2022-07-29T15:33:10;5.65;;;2.65;;
37323;SDS011;23205;49.986;18.950;2022-07-29T15:38:11;12.45;;;3.33;;
37323;SDS011;23205;49.986;18.950;2022-07-29T15:43:12;7.05;;;3.25;;
37323;SDS011;23205;49.986;18.950;2022-07-29T15:48:13;7.28;;;2.80;;
37323;SDS011;23205;49.986;18.950;2022-07-29T15:53:13;16.55;;;3.78;;
37323;SDS011;23205;49.986;18.950;2022-07-29T15:58:14;7.32;;;3.65;;
37323;SDS011;23205;49.986;18.950;2022-07-29T16:03:15;10.05;;;3.28;;
37323;SDS011;23205;49.986;18.950;2022-07-29T16:08:16;7.00;;;3.53;;
37323;SDS011;23205;49.986;18.950;2022-07-29T16:13:17;11.93;;;3.97;;
37323;SDS011;23205;49.986;18.950;2022-07-29T16:18:18;10.38;;;3.72;;
37323;SDS011;23205;49.986;18.950;2022-07-29T16:23:19;8.55;;;4.97;;
37323;SDS011;23205;49.986;18.950;2022-07-29T16:28:19;10.82;;;4.85;;
37323;SDS011;23205;49.986;18.950;2022-07-29T16:33:20;8.43;;;5.25;;
37323;SDS011;23205;49.986;18.950;2022-07-29T16:38:21;12.35;;;5.65;;
37323;SDS011;23205;49.986;18.950;2022-07-29T16:43:22;11.10;;;4.50;;
37323;SDS011;23205;49.986;18.950;2022-07-29T16:48:23;8.50;;;4.45;;
37323;SDS011;23205;49.986;18.950;2022-07-29T16:53:23;8.68;;;4.65;;
37323;SDS011;23205;49.986;18.950;2022-07-29T16:58:26;9.25;;;5.30;;
37323;SDS011;23205;49.986;18.950;2022-07-29T17:03:26;8.18;;;4.82;;
37323;SDS011;23205;49.986;18.950;2022-07-29T17:08:27;12.15;;;5.35;;
37323;SDS011;23205;49.986;18.950;2022-07-29T17:13:28;7.47;;;4.40;;
37323;SDS011;23205;49.986;18.950;2022-07-29T17:18:29;8.27;;;4.40;;
37323;SDS011;23205;49.986;18.950;2022-07-29T17:23:29;8.02;;;4.93;;
37323;SDS011;23205;49.986;18.950;2022-07-29T17:28:30;9.23;;;4.55;;
37323;SDS011;23205;49.986;18.950;2022-07-29T17:33:31;8.35;;;5.32;;
37323;SDS011;23205;49.986;18.950;2022-07-29T17:38:32;8.43;;;5.47;;
37323;SDS011;23205;49.986;18.950;2022-07-29T17:43:33;9.43;;;5.05;;
37323;SDS011;23205;49.986;18.950;2022-07-29T17:48:34;8.75;;;4.68;;
37323;SDS011;23205;49.986;18.950;2022-07-29T17:53:35;13.15;;;5.30;;
37323;SDS011;23205;49.986;18.950;2022-07-29T17:58:37;11.65;;;5.80;;
37323;SDS011;23205;49.986;18.950;2022-07-29T18:03:38;10.68;;;5.57;;
37323;SDS011;23205;49.986;18.950;2022-07-29T18:08:39;11.75;;;7.07;;
37323;SDS011;23205;49.986;18.950;2022-07-29T18:13:40;10.45;;;6.30;;
37323;SDS011;23205;49.986;18.950;2022-07-29T18:18:42;11.52;;;6.50;;
37323;SDS011;23205;49.986;18.950;2022-07-29T18:23:44;9.02;;;6.10;;
37323;SDS011;23205;49.986;18.950;2022-07-29T18:28:50;12.35;;;6.45;;
37323;SDS011;23205;49.986;18.950;2022-07-29T18:33:51;9.63;;;6.75;;
37323;SDS011;23205;49.986;18.950;2022-07-29T18:38:52;11.43;;;6.93;;
37323;SDS011;23205;49.986;18.950;2022-07-29T18:43:53;10.95;;;6.80;;
37323;SDS011;23205;49.986;18.950;2022-07-29T18:48:54;12.52;;;7.57;;
37323;SDS011;23205;49.986;18.950;2022-07-29T18:53:56;10.43;;;6.50;;
37323;SDS011;23205;49.986;18.950;2022-07-29T18:58:57;12.63;;;6.60;;
37323;SDS011;23205;49.986;18.950;2022-07-29T19:03:58;12.02;;;6.90;;
37323;SDS011;23205;49.986;18.950;2022-07-29T19:08:59;11.32;;;6.85;;
37323;SDS011;23205;49.986;18.950;2022-07-29T19:14:00;10.98;;;6.30;;
37323;SDS011;23205;49.986;18.950;2022-07-29T19:19:01;31.38;;;9.35;;
37323;SDS011;23205;49.986;18.950;2022-07-29T19:24:02;11.23;;;7.53;;
37323;SDS011;23205;49.986;18.950;2022-07-29T19:29:04;14.55;;;8.70;;
37323;SDS011;23205;49.986;18.950;2022-07-29T19:34:05;15.27;;;9.00;;
37323;SDS011;23205;49.986;18.950;2022-07-29T19:39:06;12.80;;;7.85;;
37323;SDS011;23205;49.986;18.950;2022-07-29T19:44:07;11.27;;;7.30;;
37323;SDS011;23205;49.986;18.950;2022-07-29T19:49:10;12.88;;;7.90;;
37323;SDS011;23205;49.986;18.950;2022-07-29T19:54:12;16.30;;;8.63;;
37323;SDS011;23205;49.986;18.950;2022-07-29T19:59:14;12.85;;;7.15;;
37323;SDS011;23205;49.986;18.950;2022-07-29T20:04:15;17.52;;;8.55;;
37323;SDS011;23205;49.986;18.950;2022-07-29T20:09:16;13.82;;;8.40;;
37323;SDS011;23205;49.986;18.950;2022-07-29T20:14:17;12.82;;;8.38;;
37323;SDS011;23205;49.986;18.950;2022-07-29T20:19:17;11.95;;;7.85;;
37323;SDS011;23205;49.986;18.950;2022-07-29T20:24:18;12.43;;;8.00;;
37323;SDS011;23205;49.986;18.950;2022-07-29T20:29:20;11.93;;;8.32;;
37323;SDS011;23205;49.986;18.950;2022-07-29T20:34:21;13.27;;;7.55;;
37323;SDS011;23205;49.986;18.950;2022-07-29T20:39:22;13.43;;;8.65;;
37323;SDS011;23205;49.986;18.950;2022-07-29T20:44:23;14.82;;;9.38;;
37323;SDS011;23205;49.986;18.950;2022-07-29T20:49:24;13.85;;;8.05;;
37323;SDS011;23205;49.986;18.950;2022-07-29T20:54:25;12.98;;;8.15;;
37323;SDS011;23205;49.986;18.950;2022-07-29T20:59:26;16.00;;;7.72;;
37323;SDS011;23205;49.986;18.950;2022-07-29T21:04:27;11.45;;;7.43;;
37323;SDS011;23205;49.986;18.950;2022-07-29T21:09:28;13.07;;;7.70;;
37323;SDS011;23205;49.986;18.950;2022-07-29T21:14:29;11.70;;;7.78;;
37323;SDS011;23205;49.986;18.950;2022-07-29T21:19:35;14.27;;;7.88;;
37323;SDS011;23205;49.986;18.950;2022-07-29T21:24:37;14.27;;;8.00;;
37323;SDS011;23205;49.986;18.950;2022-07-29T21:29:38;12.18;;;7.97;;
37323;SDS011;23205;49.986;18.950;2022-07-29T21:34:38;10.02;;;7.35;;
37323;SDS011;23205;49.986;18.950;2022-07-29T21:39:39;13.93;;;8.68;;
37323;SDS011;23205;49.986;18.950;2022-07-29T21:44:40;14.57;;;9.73;;
37323;SDS011;23205;49.986;18.950;2022-07-29T21:49:41;16.50;;;8.88;;
37323;SDS011;23205;49.986;18.950;2022-07-29T21:54:42;16.08;;;8.93;;
37323;SDS011;23205;49.986;18.950;2022-07-29T21:59:42;13.70;;;8.70;;
37323;SDS011;23205;49.986;18.950;2022-07-29T22:04:43;14.95;;;9.48;;
37323;SDS011;23205;49.986;18.950;2022-07-29T22:09:44;13.57;;;8.45;;
37323;SDS011;23205;49.986;18.950;2022-07-29T22:14:45;14.50;;;7.57;;
37323;SDS011;23205;49.986;18.950;2022-07-29T22:19:46;12.63;;;7.18;;
37323;SDS011;23205;49.986;18.950;2022-07-29T22:24:46;12.70;;;7.25;;
37323;SDS011;23205;49.986;18.950;2022-07-29T22:29:47;11.85;;;7.05;;
37323;SDS011;23205;49.986;18.950;2022-07-29T22:34:48;10.30;;;6.28;;
37323;SDS011;23205;49.986;18.950;2022-07-29T22:39:49;11.93;;;6.78;;
37323;SDS011;23205;49.986;18.950;2022-07-29T22:44:50;8.90;;;5.90;;
37323;SDS011;23205;49.986;18.950;2022-07-29T22:49:51;14.00;;;6.43;;
37323;SDS011;23205;49.986;18.950;2022-07-29T22:54:51;8.98;;;6.00;;
37323;SDS011;23205;49.986;18.950;2022-07-29T22:59:52;9.98;;;5.32;;
37323;SDS011;23205;49.986;18.950;2022-07-29T23:04:53;8.95;;;5.35;;
37323;SDS011;23205;49.986;18.950;2022-07-29T23:09:54;10.70;;;5.43;;
37323;SDS011;23205;49.986;18.950;2022-07-29T23:14:55;7.45;;;5.15;;
37323;SDS011;23205;49.986;18.950;2022-07-29T23:19:55;9.52;;;4.70;;
37323;SDS011;23205;49.986;18.950;2022-07-29T23:24:56;5.75;;;3.78;;
37323;SDS011;23205;49.986;18.950;2022-07-29T23:29:57;9.05;;;4.13;;
37323;SDS011;23205;49.986;18.950;2022-07-29T23:34:58;7.00;;;4.43;;
37323;SDS011;23205;49.986;18.950;2022-07-29T23:39:58;6.68;;;4.15;;
37323;SDS011;23205;49.986;18.950;2022-07-29T23:44:59;6.60;;;4.03;;
37323;SDS011;23205;49.986;18.950;2022-07-29T23:50:00;7.30;;;3.97;;
37323;SDS011;23205;49.986;18.950;2022-07-29T23:55:01;7.25;;;4.10;;
